Time;durP1;ratioP1;P1;durP2;ratioP2;P2;SDS_P1;SDS_P2;PMS_P1;PMS_P2;Temp;Humidity;BMP_temperature;BMP_pressure;BME280_temperature;BME280_humidity;BME280_pressure;Samples;Min_cycle;Max_cycle;Signal;HPM_P1;HPM_P2
2021/11/24 00:00:32;;;;;;;8.93;6.20;;;0.60;78.90;;;0.88;62.00;98484.72;5029927;28;20045;-47
2021/11/24 00:03:00;;;;;;;11.27;7.00;;;0.50;78.90;;;0.84;62.12;98492.84;5046432;28;20049;-48
2021/11/24 00:05:28;;;;;;;11.70;6.63;;;0.50;78.70;;;0.83;62.22;98491.97;5043652;28;20055;-46
2021/11/24 00:07:56;;;;;;;10.00;6.57;;;0.50;78.80;;;0.82;61.71;98494.72;5046630;28;20057;-48
2021/11/24 00:10:24;;;;;;;11.03;6.83;;;0.40;78.70;;;0.80;62.20;98491.31;5046177;28;20717;-48
2021/11/24 00:12:51;;;;;;;10.87;6.77;;;0.40;78.70;;;0.77;62.00;98481.81;5044462;28;20061;-51
2021/11/24 00:15:20;;;;;;;9.60;6.33;;;0.40;78.90;;;0.75;62.25;98484.50;5045737;28;20061;-47
2021/11/24 00:17:48;;;;;;;11.17;7.40;;;0.40;79.20;;;0.75;61.67;98487.13;5045962;28;20346;-48
2021/11/24 00:20:17;;;;;;;12.30;7.00;;;0.40;78.80;;;0.73;62.01;98483.75;5047013;28;20052;-47
2021/11/24 00:22:45;;;;;;;10.40;6.67;;;0.40;79.00;;;0.72;62.63;98484.69;5046466;28;20196;-48
2021/11/24 00:25:13;;;;;;;11.97;7.17;;;0.40;78.90;;;0.71;61.68;98484.75;5046056;28;20076;-49
2021/11/24 00:27:41;;;;;;;11.50;7.23;;;0.40;78.70;;;0.68;62.23;98487.53;5045787;28;20053;-48
2021/11/24 00:30:10;;;;;;;11.63;7.13;;;0.30;79.10;;;0.67;61.75;98476.19;5045216;28;20083;-46
2021/11/24 00:32:38;;;;;;;13.67;7.50;;;0.20;79.00;;;0.64;61.90;98486.88;5046040;28;20706;-47
2021/11/24 00:35:07;;;;;;;13.90;9.30;;;0.30;78.80;;;0.62;62.79;98482.59;5044853;28;20056;-41
2021/11/24 00:37:36;;;;;;;13.63;8.17;;;0.30;79.70;;;0.63;62.80;98479.91;5045883;28;20238;-41
2021/11/24 00:40:06;;;;;;;13.93;8.47;;;0.20;80.00;;;0.64;62.82;98476.38;5045632;28;20055;-41
2021/11/24 00:42:34;;;;;;;14.77;8.47;;;0.30;80.00;;;0.64;62.78;98480.75;5026708;28;20055;-40
2021/11/24 00:45:04;;;;;;;12.70;8.43;;;0.30;79.50;;;0.57;62.22;98477.63;5045580;28;20376;-41
2021/11/24 00:47:32;;;;;;;11.87;8.13;;;0.20;79.10;;;0.55;62.11;98477.69;5045686;28;20449;-41
2021/11/24 00:50:00;;;;;;;14.60;8.27;;;0.20;79.10;;;0.54;61.95;98478.63;5028126;28;20040;-40
2021/11/24 00:52:30;;;;;;;11.13;8.13;;;0.20;79.00;;;0.54;62.08;98475.13;5044814;28;20254;-41
2021/11/24 00:54:58;;;;;;;12.87;8.03;;;0.20;79.40;;;0.55;62.14;98479.47;5045284;28;20255;-41
2021/11/24 00:57:26;;;;;;;10.43;6.40;;;0.20;79.20;;;0.54;61.89;98478.63;5044014;28;20293;-40
2021/11/24 00:59:54;;;;;;;12.40;7.13;;;0.20;79.40;;;0.52;62.38;98472.59;5043978;28;20063;-41
2021/11/24 01:02:23;;;;;;;14.03;8.00;;;0.20;79.00;;;0.52;62.17;98469.97;5026629;28;20067;-40
2021/11/24 01:04:51;;;;;;;11.13;6.97;;;0.20;79.10;;;0.51;62.28;98464.81;5003981;28;1142149;-41
2021/11/24 01:07:19;;;;;;;12.60;7.17;;;0.20;78.90;;;0.50;62.18;98458.72;5045201;28;20628;-41
2021/11/24 01:09:51;;;;;;;12.87;7.47;;;0.20;78.50;;;0.48;62.06;98463.19;5047901;28;20087;-41
2021/11/24 01:12:20;;;;;;;13.87;6.50;;;0.10;78.60;;;0.45;62.31;98454.66;5045128;28;20057;-41
2021/11/24 01:14:49;;;;;;;13.20;7.30;;;0.10;78.80;;;0.43;62.53;98461.72;5044666;28;20046;-41
2021/11/24 01:17:17;;;;;;;13.40;7.93;;;0.10;78.40;;;0.38;62.63;98457.56;5044173;28;20246;-41
2021/11/24 01:19:45;;;;;;;13.97;8.13;;;0.00;78.80;;;0.38;62.71;98459.34;5045675;28;20180;-41
2021/11/24 01:22:13;;;;;;;12.37;7.93;;;0.10;79.20;;;0.39;62.90;98458.44;5045682;28;20060;-41
2021/11/24 01:24:41;;;;;;;14.27;8.27;;;0.10;79.00;;;0.39;62.23;98451.41;5044834;28;20033;-41
2021/11/24 01:27:09;;;;;;;11.63;8.80;;;0.10;79.30;;;0.38;62.26;98454.94;5045337;28;20075;-41
2021/11/24 01:29:37;;;;;;;16.70;9.87;;;0.10;79.70;;;0.37;62.60;98450.66;5045829;28;20350;-41
2021/11/24 01:32:06;;;;;;;16.67;10.93;;;0.10;78.90;;;0.39;62.09;98450.59;5046497;28;20053;-41
2021/11/24 01:34:35;;;;;;;16.47;11.03;;;0.10;79.30;;;0.41;62.45;98451.34;5045179;28;20049;-41
2021/11/24 01:37:02;;;;;;;14.57;10.27;;;0.10;79.10;;;0.40;62.99;98447.03;5026791;28;20065;-41
2021/11/24 01:39:30;;;;;;;14.27;8.77;;;0.10;79.10;;;0.41;62.31;98445.25;5047206;28;20060;-41
2021/11/24 01:41:58;;;;;;;16.20;10.67;;;0.10;78.80;;;0.39;62.21;98445.34;5027185;28;20087;-41
2021/11/24 01:44:28;;;;;;;17.70;10.80;;;0.10;79.00;;;0.42;62.64;98446.94;5045235;28;20356;-41
2021/11/24 01:47:01;;;;;;;16.50;10.57;;;0.10;79.70;;;0.42;62.59;98439.94;5026026;28;20063;-41
2021/11/24 01:49:31;;;;;;;14.23;9.20;;;0.10;79.90;;;0.43;62.43;98435.53;5044561;28;20044;-41
2021/11/24 01:51:59;;;;;;;14.20;8.47;;;0.10;79.60;;;0.42;63.00;98439.09;5045326;28;20056;-41
2021/11/24 01:54:28;;;;;;;11.73;8.20;;;0.10;79.50;;;0.41;63.25;98427.78;5043811;28;20060;-40
2021/11/24 01:56:58;;;;;;;13.40;8.40;;;0.10;79.80;;;0.41;63.32;98433.00;5046815;28;20053;-41
2021/11/24 01:59:26;;;;;;;13.97;8.50;;;0.10;80.00;;;0.40;62.57;98420.81;5043979;28;20064;-41
2021/11/24 02:01:55;;;;;;;11.00;5.90;;;0.10;80.30;;;0.43;63.11;98425.03;5043891;28;20275;-41
2021/11/24 02:04:23;;;;;;;10.87;6.73;;;0.10;80.90;;;0.45;63.42;98423.22;5044485;28;20059;-41
2021/11/24 02:06:53;;;;;;;7.90;5.37;;;0.20;81.00;;;0.46;63.76;98422.28;5043951;28;20063;-41
2021/11/24 02:09:22;;;;;;;8.50;6.53;;;0.10;81.40;;;0.45;62.97;98424.06;5045769;28;20382;-41
2021/11/24 02:11:50;;;;;;;10.90;5.93;;;0.10;81.90;;;0.41;62.98;98419.91;5045902;28;20343;-41
2021/11/24 02:14:18;;;;;;;12.10;6.40;;;0.10;82.00;;;0.38;63.86;98415.66;5044085;28;20516;-41
2021/11/24 02:16:52;;;;;;;10.00;6.13;;;0.10;82.20;;;0.41;63.95;98417.28;5044061;28;20798;-41
2021/11/24 02:19:28;;;;;;;10.73;6.80;;;0.10;82.90;;;0.43;63.77;98412.81;5027719;28;20158;-40
2021/11/24 02:21:56;;;;;;;9.37;5.70;;;0.10;82.30;;;0.43;63.81;98412.81;5027178;28;20060;-40
2021/11/24 02:24:31;;;;;;;8.10;5.97;;;0.10;81.90;;;0.41;62.93;98404.19;5043403;28;20045;-41
2021/11/24 02:27:01;;;;;;;8.30;6.03;;;0.10;82.00;;;0.35;63.50;98394.00;5045544;28;20067;-40
2021/11/24 02:29:30;;;;;;;10.37;6.27;;;0.00;81.50;;;0.32;63.29;98392.41;5041995;28;20061;-41
2021/11/24 02:32:01;;;;;;;9.37;5.83;;;0.00;81.80;;;0.29;63.01;98386.47;5027497;28;20135;-41
2021/11/24 02:34:31;;;;;;;10.17;5.70;;;0.00;82.10;;;0.24;63.62;98383.25;5043177;28;20060;-41
2021/11/24 02:36:59;;;;;;;10.00;5.40;;;-0.10;82.00;;;0.22;64.01;98391.19;5025983;28;20067;-41
2021/11/24 02:39:27;;;;;;;8.40;5.87;;;-0.10;82.40;;;0.21;64.09;98396.50;5043961;28;20049;-41
2021/11/24 02:41:54;;;;;;;10.47;5.63;;;-0.10;82.10;;;0.21;63.51;98389.47;5044195;28;20063;-41
2021/11/24 02:44:34;;;;;;;9.70;5.53;;;-0.10;82.10;;;0.24;64.28;98383.25;5044574;28;20051;-41
2021/11/24 02:47:21;;;;;;;10.60;5.50;;;0.00;82.00;;;0.24;63.00;98383.25;5000844;28;20363;-41
2021/11/24 02:49:55;;;;;;;8.60;5.50;;;-0.10;81.30;;;0.24;63.15;98383.25;5004438;28;20267;-41
2021/11/24 02:52:23;;;;;;;8.68;5.97;;;-0.10;81.30;;;0.21;63.19;98386.84;5004347;28;20080;-41
2021/11/24 02:54:55;;;;;;;11.03;5.33;;;-0.10;80.90;;;0.22;63.51;98378.09;4996529;28;20066;-41
2021/11/24 02:57:40;;;;;;;7.97;5.30;;;-0.10;81.20;;;0.24;62.93;98373.63;5003918;28;20056;-41
2021/11/24 03:00:23;;;;;;;9.27;5.33;;;0.00;81.00;;;0.23;63.36;98376.31;5005407;28;20064;-41
2021/11/24 03:02:51;;;;;;;9.03;5.77;;;-0.10;80.80;;;0.23;62.87;98371.91;5004115;28;20088;-40
2021/11/24 03:05:26;;;;;;;7.47;4.83;;;0.00;80.90;;;0.23;62.71;98366.66;4999507;28;20232;-41
2021/11/24 03:07:59;;;;;;;11.10;6.20;;;-0.10;80.80;;;0.22;62.78;98370.25;5004212;28;20050;-41
2021/11/24 03:10:28;;;;;;;8.00;5.17;;;-0.10;80.70;;;0.21;62.85;98365.06;5004703;28;20050;-41
2021/11/24 03:12:58;;;;;;;9.37;5.00;;;-0.10;80.60;;;0.19;62.94;98365.13;5005266;28;20046;-41
2021/11/24 03:15:27;;;;;;;10.67;5.73;;;-0.10;80.30;;;0.18;62.78;98373.94;5004510;28;20058;-41
2021/11/24 03:17:54;;;;;;;9.17;4.93;;;-0.10;80.30;;;0.19;62.75;98368.63;5007722;28;20056;-41
2021/11/24 03:20:26;;;;;;;7.90;4.87;;;-0.10;80.30;;;0.19;63.29;98368.63;5008622;28;20053;-41
2021/11/24 03:22:58;;;;;;;7.60;4.70;;;-0.20;79.60;;;0.17;62.65;98365.22;4999152;28;20068;-41
2021/11/24 03:25:27;;;;;;;7.00;4.70;;;-0.20;79.80;;;0.16;62.88;98358.31;5008837;28;20255;-41
2021/11/24 03:27:55;;;;;;;9.87;5.87;;;-0.20;80.00;;;0.18;63.51;98355.59;5008568;28;20054;-41
2021/11/24 03:30:28;;;;;;;9.77;6.00;;;-0.10;80.20;;;0.18;63.08;98361.69;5008713;28;20052;-41
2021/11/24 03:32:59;;;;;;;7.60;5.20;;;-0.10;80.10;;;0.17;62.97;98354.75;5006361;28;20050;-41
2021/11/24 03:35:28;;;;;;;9.10;5.20;;;-0.10;80.50;;;0.18;63.13;98353.81;5005012;28;20262;-41
2021/11/24 03:37:58;;;;;;;7.77;5.47;;;-0.10;80.40;;;0.18;62.72;98350.38;5006849;28;20128;-41
2021/11/24 03:40:31;;;;;;;10.40;5.97;;;-0.10;80.40;;;0.18;63.15;98360.84;5009922;28;20056;-41
2021/11/24 03:43:00;;;;;;;11.20;6.23;;;-0.10;80.40;;;0.18;63.45;98355.59;5006685;28;20065;-41
2021/11/24 03:45:33;;;;;;;8.30;5.70;;;-0.20;80.20;;;0.13;63.38;98355.81;5006657;28;20061;-41
2021/11/24 03:48:05;;;;;;;8.82;6.20;;;-0.20;80.50;;;0.10;63.56;98353.38;5007528;28;20061;-41
2021/11/24 03:50:34;;;;;;;8.47;5.80;;;-0.20;80.10;;;0.10;63.14;98352.53;5008651;28;20057;-41
2021/11/24 03:53:02;;;;;;;12.03;7.10;;;-0.20;80.00;;;0.06;63.16;98343.13;5006581;28;20046;-41
2021/11/24 03:55:30;;;;;;;10.00;5.90;;;-0.30;79.80;;;0.06;62.72;98343.13;5007190;28;20073;-41
2021/11/24 03:57:59;;;;;;;11.53;5.93;;;-0.30;79.70;;;0.06;62.43;98340.50;5007355;28;20042;-41
2021/11/24 04:00:28;;;;;;;11.43;6.60;;;-0.20;79.90;;;0.02;62.72;98338.97;5008452;28;20052;-41
2021/11/24 04:02:56;;;;;;;9.97;6.23;;;-0.30;79.60;;;-0.01;62.84;98342.59;5006769;28;20058;-41
2021/11/24 04:05:25;;;;;;;13.17;7.23;;;-0.30;79.50;;;-0.02;62.69;98333.03;5007084;28;20088;-41
2021/11/24 04:07:54;;;;;;;10.23;6.07;;;-0.30;79.90;;;-0.08;63.25;98334.22;4999461;28;20344;-41
2021/11/24 04:10:22;;;;;;;9.13;6.07;;;-0.40;79.30;;;-0.12;62.94;98332.66;5009068;28;20342;-41
2021/11/24 04:12:49;;;;;;;12.17;6.77;;;-0.40;79.50;;;-0.15;62.40;98340.69;4999622;28;20382;-41
2021/11/24 04:15:19;;;;;;;8.60;6.33;;;-0.50;79.50;;;-0.18;62.43;98340.84;5007827;28;20255;-41
2021/11/24 04:17:48;;;;;;;8.10;6.13;;;-0.50;79.50;;;-0.21;62.86;98338.38;5007209;28;20054;-41
2021/11/24 04:20:19;;;;;;;10.40;6.80;;;-0.50;79.40;;;-0.21;62.56;98335.78;5006974;28;20429;-41
2021/11/24 04:22:47;;;;;;;8.33;5.47;;;-0.50;79.90;;;-0.21;62.63;98338.38;5006257;28;20049;-41
2021/11/24 04:25:17;;;;;;;12.20;6.77;;;-0.50;80.20;;;-0.16;62.83;98338.16;5005502;28;20046;-41
2021/11/24 04:27:46;;;;;;;8.53;5.93;;;-0.50;80.10;;;-0.15;63.01;98329.38;5006829;28;20287;-41
2021/11/24 04:30:18;;;;;;;13.17;7.60;;;-0.40;80.20;;;-0.14;62.87;98325.81;5007380;28;20054;-41
2021/11/24 04:32:47;;;;;;;13.53;8.17;;;-0.40;80.40;;;-0.13;63.09;98330.16;5005689;28;20049;-41
2021/11/24 04:35:15;;;;;;;14.90;9.13;;;-0.40;80.80;;;-0.13;63.00;98324.91;5006353;28;20060;-41
2021/11/24 04:37:43;;;;;;;14.83;10.03;;;-0.40;81.20;;;-0.12;63.85;98340.53;5006486;28;20062;-41
2021/11/24 04:40:12;;;;;;;13.97;10.07;;;-0.40;81.70;;;-0.09;63.65;98329.06;5017462;28;20050;-41
2021/11/24 04:42:41;;;;;;;15.50;9.90;;;-0.40;81.80;;;-0.08;63.34;98330.75;5007009;28;20406;-41
2021/11/24 04:45:10;;;;;;;13.60;8.40;;;-0.40;81.70;;;-0.06;63.57;98332.38;5001023;28;20056;-41
2021/11/24 04:47:38;;;;;;;14.10;10.07;;;-0.40;82.00;;;-0.05;63.75;98335.84;5003638;28;20505;-41
2021/11/24 04:50:07;;;;;;;11.10;9.17;;;-0.30;82.20;;;-0.06;63.97;98324.53;5005553;28;20065;-41
2021/11/24 04:52:35;;;;;;;14.80;9.97;;;-0.30;81.90;;;-0.03;63.66;98331.38;5005578;28;20064;-41
2021/11/24 04:55:05;;;;;;;18.17;10.30;;;-0.30;81.80;;;-0.04;63.16;98320.06;5005966;28;20061;-41
2021/11/24 04:57:33;;;;;;;14.70;9.70;;;-0.30;81.60;;;-0.05;63.17;98323.59;5006199;28;20344;-41
2021/11/24 05:00:06;;;;;;;17.07;11.10;;;-0.30;81.70;;;-0.04;63.29;98316.56;5000905;28;20054;-41
2021/11/24 05:02:34;;;;;;;14.20;11.03;;;-0.30;81.80;;;-0.02;63.23;98327.81;5004986;28;20255;-41
2021/11/24 05:05:03;;;;;;;14.57;10.87;;;-0.30;81.70;;;0.00;63.41;98323.38;5005065;28;20113;-41
2021/11/24 05:07:31;;;;;;;13.83;9.83;;;-0.20;81.70;;;0.06;63.47;98327.41;5006628;28;20052;-41
2021/11/24 05:10:04;;;;;;;14.30;9.50;;;-0.20;82.20;;;0.10;64.54;98329.81;5006052;28;20054;-41
2021/11/24 05:12:34;;;;;;;14.00;8.80;;;-0.10;82.40;;;0.14;64.42;98320.88;5007240;28;20351;-41
2021/11/24 05:15:05;;;;;;;17.27;7.87;;;-0.10;82.30;;;0.16;64.43;98324.25;4982649;28;20062;-41
2021/11/24 05:17:33;;;;;;;9.50;6.43;;;0.00;82.60;;;0.21;63.79;98320.56;5006680;28;20065;-41
2021/11/24 05:20:02;;;;;;;11.63;6.87;;;0.00;82.90;;;0.26;64.60;98326.41;5006885;28;20080;-42
2021/11/24 05:22:31;;;;;;;13.83;7.00;;;0.10;83.00;;;0.31;64.18;98322.63;5005946;28;20611;-42
2021/11/24 05:24:59;;;;;;;16.90;8.00;;;0.10;83.00;;;0.33;64.16;98322.50;4998877;28;20064;-42
2021/11/24 05:27:26;;;;;;;15.03;8.50;;;0.10;83.20;;;0.35;65.03;98325.91;5004237;28;20056;-42
2021/11/24 05:29:59;;;;;;;17.30;9.67;;;0.10;84.40;;;0.36;64.75;98323.19;5007099;28;20054;-42
2021/11/24 05:32:27;;;;;;;17.03;10.20;;;0.10;84.00;;;0.39;65.25;98314.34;5005493;28;20042;-42
2021/11/24 05:34:55;;;;;;;22.33;11.67;;;0.20;84.40;;;0.43;65.26;98312.41;5005040;28;20591;-41
2021/11/24 05:37:22;;;;;;;23.33;12.23;;;0.20;85.00;;;0.46;65.00;98309.63;5005649;28;20057;-42
2021/11/24 05:39:50;;;;;;;24.80;13.30;;;0.20;85.20;;;0.47;64.53;98308.72;5005290;28;20058;-41
2021/11/24 05:42:18;;;;;;;24.40;13.37;;;0.20;86.60;;;0.47;65.49;98312.16;5003881;28;20057;-41
2021/11/24 05:44:49;;;;;;;32.57;15.43;;;0.20;86.20;;;0.44;65.64;98307.09;5005911;28;20263;-42
2021/11/24 05:50:30;;;;;;;26.97;13.80;;;0.20;88.00;;;0.47;65.52;98309.56;4992494;28;20058;-41
2021/11/24 05:52:58;;;;;;;27.33;13.97;;;0.20;88.50;;;0.53;65.10;98305.75;5004416;28;20071;-42
2021/11/24 05:55:27;;;;;;;53.53;25.53;;;0.30;88.40;;;0.56;65.12;98300.34;5004292;28;20072;-42
2021/11/24 05:57:55;;;;;;;33.90;16.77;;;0.30;88.60;;;0.57;65.52;98309.91;5006125;28;20060;-41
2021/11/24 06:00:23;;;;;;;31.00;15.97;;;0.30;89.10;;;0.59;65.15;98298.41;5004627;28;20066;-41
2021/11/24 06:02:51;;;;;;;28.90;14.47;;;0.30;89.30;;;0.64;66.20;98297.31;5005502;28;20275;-41
2021/11/24 06:05:19;;;;;;;30.13;15.03;;;0.40;89.30;;;0.65;66.16;98291.97;5003994;28;20068;-42
2021/11/24 06:07:47;;;;;;;39.67;21.13;;;0.40;89.30;;;0.67;65.63;98286.66;5004276;28;20268;-41
2021/11/24 06:10:15;;;;;;;45.27;21.17;;;0.40;89.20;;;0.66;65.45;98284.97;5007142;28;20068;-42
2021/11/24 06:12:43;;;;;;;34.33;16.27;;;0.40;89.50;;;0.66;65.34;98293.69;5004966;28;20041;-42
2021/11/24 06:15:17;;;;;;;25.20;14.80;;;0.40;89.70;;;0.67;65.56;98292.75;5005560;28;20351;-41
2021/11/24 06:17:47;;;;;;;30.83;15.50;;;0.40;89.80;;;0.66;65.62;98287.59;5003805;28;20271;-42
2021/11/24 06:20:17;;;;;;;71.43;31.50;;;0.40;90.20;;;0.67;65.70;98277.03;5001857;28;20057;-42
2021/11/24 06:22:46;;;;;;;48.03;21.50;;;0.40;90.40;;;0.72;66.01;98279.41;5005543;28;20344;-42
2021/11/24 06:25:15;;;;;;;53.23;23.07;;;0.40;90.30;;;0.71;65.95;98278.53;5004868;28;20042;-42
2021/11/24 06:27:43;;;;;;;52.03;22.93;;;0.40;90.20;;;0.72;66.33;98284.66;5004796;28;20058;-42
2021/11/24 06:30:15;;;;;;;34.37;18.00;;;0.40;90.10;;;0.69;66.03;98285.63;5003243;28;20315;-41
2021/11/24 06:32:44;;;;;;;48.37;23.43;;;0.40;90.20;;;0.66;66.10;98283.22;4996191;28;20058;-42
2021/11/24 06:35:13;;;;;;;69.53;33.73;;;0.30;90.10;;;0.62;65.50;98281.69;5003635;28;20062;-42
2021/11/24 06:37:42;;;;;;;71.47;27.37;;;0.30;90.20;;;0.63;65.72;98279.91;5004186;28;20046;-42
2021/11/24 06:40:10;;;;;;;39.77;19.63;;;0.30;90.30;;;0.58;65.78;98278.38;5006582;28;20048;-42
2021/11/24 06:42:38;;;;;;;50.57;21.30;;;0.20;89.90;;;0.58;65.79;98274.91;5002106;28;20080;-42
2021/11/24 06:45:08;;;;;;;40.40;18.30;;;0.20;89.80;;;0.56;65.25;98267.13;5003101;28;20306;-42
2021/11/24 06:47:38;;;;;;;69.73;29.10;;;0.20;89.70;;;0.54;65.55;98276.00;5003889;28;20240;-42
2021/11/24 06:50:08;;;;;;;46.10;21.80;;;0.10;89.20;;;0.48;65.64;98269.31;5008958;28;20056;-42
2021/11/24 06:52:37;;;;;;;38.20;19.33;;;0.10;89.30;;;0.47;65.49;98272.88;5007332;28;20053;-42
2021/11/24 06:55:06;;;;;;;48.17;21.23;;;0.10;89.50;;;0.44;65.56;98273.03;5007682;28;20065;-42
2021/11/24 06:57:35;;;;;;;34.50;17.30;;;0.10;89.00;;;0.42;65.19;98277.50;5008410;28;20062;-42
2021/11/24 07:00:07;;;;;;;39.43;20.67;;;0.00;89.30;;;0.41;65.31;98283.69;5008510;28;20050;-42
2021/11/24 07:02:35;;;;;;;27.80;15.43;;;0.00;89.20;;;0.40;65.87;98287.22;5007819;28;20273;-41
2021/11/24 07:05:04;;;;;;;20.37;12.13;;;0.00;89.10;;;0.42;65.15;98281.91;5008751;28;20316;-42
2021/11/24 07:07:32;;;;;;;31.23;15.93;;;0.10;88.80;;;0.42;65.27;98274.88;5007646;28;20050;-42
2021/11/24 07:10:01;;;;;;;24.37;13.50;;;0.10;88.80;;;0.44;65.56;98278.25;5008192;28;20068;-41
2021/11/24 07:12:29;;;;;;;28.40;15.17;;;0.10;88.50;;;0.46;65.30;98272.94;5007844;28;20252;-42
2021/11/24 07:14:57;;;;;;;44.47;22.97;;;0.20;88.40;;;0.45;66.03;98279.97;5008883;28;20064;-42
2021/11/24 07:17:25;;;;;;;30.23;14.67;;;0.20;88.40;;;0.48;65.34;98284.19;5007362;28;20046;-42
2021/11/24 07:19:53;;;;;;;34.43;18.83;;;0.20;88.30;;;0.49;65.28;98283.28;5007176;28;20064;-42
2021/11/24 07:22:22;;;;;;;28.53;14.53;;;0.20;88.30;;;0.47;66.03;98279.91;5006959;28;20060;-42
2021/11/24 07:24:50;;;;;;;40.93;21.47;;;0.20;88.60;;;0.50;65.68;98277.94;5008460;28;20669;-42
2021/11/24 07:27:17;;;;;;;33.00;18.07;;;0.20;89.10;;;0.53;66.14;98279.56;5007847;28;20251;-42
2021/11/24 07:29:45;;;;;;;35.43;19.77;;;0.30;89.40;;;0.58;65.63;98275.75;5008917;28;20057;-42
2021/11/24 07:32:13;;;;;;;27.47;16.07;;;0.40;89.60;;;0.63;66.60;98275.50;5007779;28;20053;-43
2021/11/24 07:34:41;;;;;;;31.33;16.97;;;0.30;89.70;;;0.68;66.67;98270.88;5007601;28;20062;-42
2021/11/24 07:37:09;;;;;;;23.63;11.27;;;0.50;89.30;;;0.66;66.46;98267.47;5008065;28;20054;-42
2021/11/24 07:39:37;;;;;;;15.07;9.17;;;0.40;88.90;;;0.61;65.96;98266.03;5008947;28;20067;-42
2021/11/24 07:42:06;;;;;;;21.60;11.30;;;0.30;90.20;;;0.58;66.05;98267.91;5002215;28;20058;-42
2021/11/24 07:44:34;;;;;;;18.27;9.87;;;0.30;90.30;;;0.58;65.77;98265.28;5005394;28;20053;-41
2021/11/24 07:47:02;;;;;;;19.27;11.07;;;0.30;90.10;;;0.59;66.35;98263.50;5007967;28;20045;-42
2021/11/24 07:49:30;;;;;;;37.73;21.30;;;0.30;89.60;;;0.59;66.36;98256.47;5005802;28;20246;-42
2021/11/24 07:51:58;;;;;;;28.20;16.43;;;0.30;89.80;;;0.62;65.79;98263.34;5006608;28;20046;-42
2021/11/24 07:54:26;;;;;;;22.23;13.13;;;0.30;90.10;;;0.63;66.39;98261.56;5007051;28;20056;-42
2021/11/24 07:56:54;;;;;;;29.50;16.10;;;0.30;90.30;;;0.64;66.72;98266.72;5007735;28;20054;-42
2021/11/24 07:59:22;;;;;;;30.37;17.80;;;0.40;90.60;;;0.67;66.63;98263.06;5008138;28;20072;-41
2021/11/24 08:01:51;;;;;;;31.53;17.67;;;0.40;90.90;;;0.70;66.02;98265.50;4982965;28;20255;-41
2021/11/24 08:04:19;;;;;;;32.43;17.03;;;0.40;90.70;;;0.72;66.21;98263.69;5007127;28;20266;-41
2021/11/24 08:06:46;;;;;;;23.70;12.00;;;0.50;91.00;;;0.75;66.24;98261.72;5007941;28;20058;-42
2021/11/24 08:09:14;;;;;;;20.80;11.73;;;0.50;91.00;;;0.76;66.21;98257.34;5007987;28;20064;-42
2021/11/24 08:11:42;;;;;;;19.17;10.97;;;0.50;91.20;;;0.77;66.39;98249.38;5006159;28;20362;-42
2021/11/24 08:14:10;;;;;;;23.17;10.97;;;0.60;91.30;;;0.79;66.60;98249.28;5007527;28;20053;-42
2021/11/24 08:16:38;;;;;;;24.90;13.03;;;0.50;91.20;;;0.79;66.81;98236.19;5034569;28;20056;-42
2021/11/24 08:19:06;;;;;;;26.83;12.83;;;0.50;91.50;;;0.80;66.43;98245.75;5047487;28;20373;-41
2021/11/24 08:21:33;;;;;;;20.20;11.03;;;0.50;91.60;;;0.80;66.57;98239.66;5045406;28;20213;-41
2021/11/24 08:24:02;;;;;;;21.40;10.93;;;0.50;91.70;;;0.75;66.84;98230.25;5046704;28;20605;-42
2021/11/24 08:26:30;;;;;;;22.40;10.93;;;0.40;92.00;;;0.78;66.34;98240.59;5045825;28;20255;-42
2021/11/24 08:28:58;;;;;;;20.90;11.43;;;0.40;92.60;;;0.81;66.39;98243.97;5046761;28;20079;-41
2021/11/24 08:31:27;;;;;;;20.90;12.03;;;0.50;93.10;;;0.85;66.74;98242.84;5046329;28;20051;-41
2021/11/24 08:33:55;;;;;;;23.57;11.60;;;0.50;93.00;;;0.87;67.28;98239.22;5046022;28;20053;-40
2021/11/24 08:36:23;;;;;;;25.53;12.03;;;0.60;92.60;;;0.88;67.22;98234.84;5046145;28;20343;-41
2021/11/24 08:38:51;;;;;;;23.47;11.80;;;0.60;92.50;;;0.87;67.29;98236.59;5046649;28;20223;-40
2021/11/24 08:41:39;;;;;;;25.17;12.40;;;0.60;92.40;;;0.88;66.93;98235.66;5045499;28;20053;-40
2021/11/24 08:44:07;;;;;;;23.97;11.80;;;0.60;92.70;;;0.92;67.38;98231.94;5046023;28;20088;-41
2021/11/24 08:46:34;;;;;;;21.63;11.80;;;0.70;93.10;;;0.92;67.10;98231.09;5045858;28;20057;-41
2021/11/24 08:49:03;;;;;;;19.83;11.30;;;0.60;93.20;;;0.94;67.45;98227.44;5047823;28;20063;-41
2021/11/24 08:51:37;;;;;;;23.43;11.93;;;0.70;93.70;;;0.98;66.95;98236.84;5045011;28;20061;-41
2021/11/24 08:54:09;;;;;;;29.75;12.13;;;0.70;93.40;;;1.02;66.94;98231.44;5045162;28;20389;-41
2021/11/24 08:56:40;;;;;;;23.53;12.27;;;0.70;93.70;;;1.05;67.71;98226.00;5044916;28;20075;-41
2021/11/24 08:59:09;;;;;;;26.20;12.67;;;0.80;94.00;;;1.09;67.13;98219.66;5043937;28;20061;-41
2021/11/24 09:01:38;;;;;;;32.90;14.17;;;0.80;93.90;;;1.14;67.61;98215.84;5034667;28;20115;-41
2021/11/24 09:04:06;;;;;;;32.43;16.07;;;0.90;94.30;;;1.22;67.28;98219.78;5032761;28;20335;-40
2021/11/24 09:06:35;;;;;;;27.33;14.50;;;0.90;94.40;;;1.30;67.82;98209.69;5035720;28;20052;-41
2021/11/24 09:09:05;;;;;;;23.07;12.80;;;1.10;94.40;;;1.38;67.82;98205.69;5023495;28;20072;-44
2021/11/24 09:11:34;;;;;;;22.27;12.27;;;1.20;94.30;;;1.49;67.80;98206.84;5028929;28;20057;-45
2021/11/24 09:14:03;;;;;;;24.77;14.17;;;1.40;94.10;;;1.58;67.56;98199.25;5029648;28;20419;-45
2021/11/24 09:16:32;;;;;;;29.57;15.57;;;1.50;93.80;;;1.63;67.45;98204.25;5037426;28;20060;-44
2021/11/24 09:19:00;;;;;;;24.27;14.03;;;1.50;93.60;;;1.71;67.53;98204.63;5036899;28;20064;-40
2021/11/24 09:21:28;;;;;;;26.43;13.67;;;1.60;93.30;;;1.75;67.20;98195.63;5044139;28;20067;-41
2021/11/24 09:24:01;;;;;;;25.13;13.50;;;1.60;93.00;;;1.81;67.53;98185.72;5046719;28;20071;-41
2021/11/24 09:26:54;;;;;;;21.37;13.17;;;1.60;93.00;;;1.85;67.62;98190.66;5040374;28;20599;-41
2021/11/24 09:29:22;;;;;;;21.90;12.47;;;1.70;93.00;;;1.88;67.33;98182.63;5042409;28;20045;-41
2021/11/24 09:31:51;;;;;;;25.10;13.57;;;1.70;93.00;;;1.93;67.41;98180.53;5044398;28;20053;-41
2021/11/24 09:34:20;;;;;;;27.30;15.13;;;1.80;93.00;;;1.97;67.76;98182.03;5044503;28;20250;-41
2021/11/24 09:36:49;;;;;;;49.07;20.83;;;1.80;92.70;;;2.00;67.69;98178.38;5037057;28;20051;-41
2021/11/24 09:39:17;;;;;;;24.30;14.30;;;1.80;92.70;;;2.00;67.15;98175.75;5044312;28;20056;-41
2021/11/24 09:41:46;;;;;;;22.77;12.03;;;1.80;92.80;;;2.04;67.49;98174.63;5045254;28;20062;-41
2021/11/24 09:44:14;;;;;;;19.43;12.47;;;1.80;92.80;;;2.07;67.59;98177.06;5044592;28;20354;-41
2021/11/24 09:46:49;;;;;;;26.37;13.60;;;1.90;93.00;;;2.10;67.47;98163.75;5036679;28;20070;-41
2021/11/24 09:49:18;;;;;;;25.13;14.03;;;1.90;93.10;;;2.13;67.17;98160.94;5039986;28;20053;-41
2021/11/24 09:51:53;;;;;;;20.53;12.40;;;1.90;92.90;;;2.14;67.19;98157.34;5044405;28;20317;-41
2021/11/24 09:54:21;;;;;;;20.33;13.17;;;1.90;92.80;;;2.16;67.67;98159.88;5043744;28;20051;-41
2021/11/24 09:56:49;;;;;;;21.97;12.03;;;2.00;92.80;;;2.21;67.43;98154.34;5044193;28;20045;-41
2021/11/24 09:59:17;;;;;;;19.37;11.90;;;2.00;92.80;;;2.23;67.66;98153.31;5045537;28;20057;-41
2021/11/24 10:01:45;;;;;;;23.23;12.43;;;2.00;92.90;;;2.25;67.33;98146.19;5044035;28;20060;-41
2021/11/24 10:04:14;;;;;;;25.37;14.37;;;2.10;92.90;;;2.28;67.69;98143.34;5044437;28;20047;-41
2021/11/24 10:06:42;;;;;;;23.70;13.43;;;2.10;93.00;;;2.32;67.26;98138.75;5027413;28;20053;-41
2021/11/24 10:09:11;;;;;;;25.60;15.17;;;2.20;92.70;;;2.35;67.68;98128.88;5045679;28;20073;-42
2021/11/24 10:11:39;;;;;;;21.53;13.57;;;2.20;92.60;;;2.40;67.63;98127.75;5043759;28;20060;-41
2021/11/24 10:14:07;;;;;;;18.10;11.67;;;2.20;92.70;;;2.45;67.53;98125.66;5043054;28;20061;-41
2021/11/24 10:16:35;;;;;;;20.53;12.47;;;2.30;92.70;;;2.48;67.27;98121.06;5043211;28;20061;-41
2021/11/24 10:19:11;;;;;;;20.70;12.07;;;2.40;92.50;;;2.52;67.70;98117.28;5041987;28;20217;-41
2021/11/24 10:22:02;;;;;;;19.37;12.70;;;2.40;92.30;;;2.58;67.42;98121.31;5045654;28;20067;-41
2021/11/24 10:24:43;;;;;;;18.92;10.52;;;2.50;92.70;;;2.59;67.65;98112.47;5037147;28;20266;-41
2021/11/24 10:27:13;;;;;;;18.50;10.53;;;2.50;92.30;;;2.63;67.44;98105.22;5040411;28;20057;-41
2021/11/24 10:30:02;;;;;;;23.07;12.23;;;2.60;92.10;;;2.69;67.44;98100.41;5040690;28;20057;-41
2021/11/24 10:32:31;;;;;;;21.20;13.10;;;2.70;92.00;;;2.73;67.45;98096.66;5042889;28;20057;-41